createdAt,value
2019-06-10T00:01:53.961Z,16.80
2019-06-10T00:04:30.761Z,16.70
2019-06-10T00:07:04.199Z,16.60
2019-06-10T00:09:36.607Z,16.60
2019-06-10T00:12:12.758Z,16.70
2019-06-10T00:14:43.788Z,16.70
2019-06-10T00:17:17.475Z,16.70
2019-06-10T00:19:51.250Z,16.60
2019-06-10T00:22:25.455Z,16.50
2019-06-10T00:25:00.148Z,16.50
2019-06-10T00:27:33.568Z,16.50
2019-06-10T00:30:08.160Z,16.50
2019-06-10T00:32:41.177Z,16.50
2019-06-10T00:35:14.159Z,16.60
2019-06-10T00:37:47.666Z,16.60
2019-06-10T00:40:21.564Z,16.50
2019-06-10T00:42:54.834Z,16.50
2019-06-10T00:45:28.352Z,16.50
2019-06-10T00:48:12.421Z,16.60
2019-06-10T00:50:36.461Z,16.60
2019-06-10T00:53:14.054Z,16.50
2019-06-10T00:55:43.777Z,16.40
2019-06-10T00:58:17.341Z,16.40
2019-06-10T01:00:51.834Z,16.30
2019-06-10T01:03:24.679Z,16.30
2019-06-10T01:06:01.134Z,16.30
2019-06-10T01:08:32.645Z,16.30
2019-06-10T01:11:11.655Z,16.30
2019-06-10T01:13:41.402Z,16.40
2019-06-10T01:16:15.438Z,16.50
2019-06-10T01:18:50.334Z,16.60
2019-06-10T01:21:22.008Z,16.70
2019-06-10T01:23:55.299Z,16.70
2019-06-10T01:26:31.049Z,16.60
2019-06-10T01:29:03.344Z,16.60
2019-06-10T01:31:38.033Z,16.50
2019-06-10T01:34:12.439Z,16.50
2019-06-10T01:36:45.056Z,16.50
2019-06-10T01:39:18.648Z,16.50
2019-06-10T01:41:52.239Z,16.60
2019-06-10T01:44:26.042Z,16.50
2019-06-10T01:47:00.984Z,16.50
2019-06-10T01:49:34.181Z,16.20
2019-06-10T01:52:09.267Z,16.20
2019-06-10T01:54:42.065Z,16.20
2019-06-10T01:57:15.755Z,16.20
2019-06-10T01:59:50.939Z,16.10
2019-06-10T02:02:23.867Z,16.10
2019-06-10T02:04:56.509Z,16.10
2019-06-10T02:07:31.970Z,16.10
2019-06-10T02:10:04.857Z,16.10
2019-06-10T02:12:38.455Z,16.10
2019-06-10T02:15:15.237Z,16.10
2019-06-10T02:17:46.682Z,16.10
2019-06-10T02:20:23.814Z,16.20
2019-06-10T02:22:55.060Z,16.20
2019-06-10T02:25:30.502Z,16.20
2019-06-10T02:28:02.403Z,16.30
2019-06-10T02:30:49.108Z,16.30
2019-06-10T02:33:14.266Z,16.30
2019-06-10T02:35:48.557Z,16.20
2019-06-10T02:38:24.800Z,16.20
2019-06-10T02:40:53.862Z,16.20
2019-06-10T02:43:31.901Z,16.20
2019-06-10T02:45:58.660Z,16.20
2019-06-10T02:48:34.941Z,16.20
2019-06-10T02:51:06.210Z,16.10
2019-06-10T02:53:43.417Z,16.10
2019-06-10T02:56:14.905Z,16.00
2019-06-10T02:58:47.788Z,16.00
2019-06-10T03:01:23.334Z,16.00
2019-06-10T03:03:55.275Z,15.80
2019-06-10T03:06:35.103Z,15.70
2019-06-10T03:09:03.884Z,15.70
2019-06-10T03:11:37.661Z,15.80
2019-06-10T03:14:13.128Z,15.90
2019-06-10T03:16:46.717Z,15.90
2019-06-10T03:19:38.694Z,15.90
2019-06-10T03:21:53.961Z,15.80
2019-06-10T03:24:27.591Z,15.90
2019-06-10T03:27:02.661Z,15.80
2019-06-10T03:29:34.683Z,15.80
2019-06-10T03:32:08.215Z,15.90
2019-06-10T03:34:47.378Z,15.90
2019-06-10T03:37:16.378Z,15.90
2019-06-10T03:39:52.999Z,15.90
2019-06-10T03:42:26.454Z,16.00
2019-06-10T03:44:58.244Z,15.90
2019-06-10T03:47:32.450Z,15.90
2019-06-10T03:50:05.498Z,15.80
2019-06-10T03:52:39.859Z,15.80
2019-06-10T03:55:13.434Z,15.80
2019-06-10T03:57:47.055Z,15.80
2019-06-10T04:00:21.950Z,15.80
2019-06-10T04:02:54.997Z,15.80
2019-06-10T04:05:28.903Z,15.70
2019-06-10T04:08:02.305Z,15.60
2019-06-10T04:10:35.767Z,15.50
2019-06-10T04:13:09.390Z,15.50
2019-06-10T04:15:43.281Z,15.40
2019-06-10T04:18:17.835Z,15.40
2019-06-10T04:20:52.730Z,15.50
2019-06-10T04:23:25.448Z,15.60
2019-06-10T04:25:57.776Z,15.70
2019-06-10T04:28:33.432Z,15.70
2019-06-10T04:31:04.992Z,15.70
2019-06-10T04:33:38.540Z,15.70
2019-06-10T04:36:13.485Z,15.70
2019-06-10T04:38:45.799Z,15.70
2019-06-10T04:41:20.478Z,15.80
2019-06-10T04:43:53.303Z,15.80
2019-06-10T04:46:28.010Z,15.80
2019-06-10T04:49:02.511Z,15.80
2019-06-10T04:51:34.919Z,15.90
2019-06-10T04:54:09.268Z,15.90
2019-06-10T04:56:43.063Z,15.90
2019-06-10T04:59:16.446Z,15.90
2019-06-10T05:01:53.048Z,15.90
2019-06-10T05:04:26.544Z,15.90
2019-06-10T05:06:58.168Z,16.00
2019-06-10T05:09:33.594Z,16.00
2019-06-10T05:12:05.513Z,16.10
2019-06-10T05:14:39.190Z,16.20
2019-06-10T05:17:12.912Z,16.30
2019-06-10T05:19:46.523Z,16.30
2019-06-10T05:22:22.710Z,16.30
2019-06-10T05:24:54.497Z,16.40
2019-06-10T05:27:30.121Z,16.50
2019-06-10T05:30:02.671Z,16.50
2019-06-10T05:32:36.239Z,16.60
2019-06-10T05:35:12.214Z,16.60
2019-06-10T05:37:43.576Z,16.60
2019-06-10T05:40:17.138Z,16.70
2019-06-10T05:42:52.855Z,16.60
2019-06-10T05:45:27.197Z,16.60
2019-06-10T05:47:58.900Z,16.60
2019-06-10T05:50:34.906Z,16.60
2019-06-10T05:53:07.134Z,16.70
2019-06-10T05:55:42.746Z,16.60
2019-06-10T05:58:14.207Z,16.70
2019-06-10T06:00:47.991Z,16.90
2019-06-10T06:03:22.967Z,17.00
2019-06-10T06:05:56.044Z,17.20
2019-06-10T06:08:33.349Z,17.30
2019-06-10T06:11:05.127Z,17.30
2019-06-10T06:13:38.634Z,17.40
2019-06-10T06:16:12.758Z,17.40
2019-06-10T06:18:46.495Z,17.50
2019-06-10T06:21:26.782Z,17.40
2019-06-10T06:23:53.901Z,17.40
2019-06-10T06:26:28.918Z,17.50
2019-06-10T06:29:02.301Z,17.50
2019-06-10T06:31:36.513Z,17.50
2019-06-10T06:34:09.347Z,17.50
2019-06-10T06:36:42.905Z,17.50
2019-06-10T06:39:16.608Z,17.50
2019-06-10T06:41:52.710Z,17.60
2019-06-10T06:44:24.141Z,17.70
2019-06-10T06:46:57.766Z,17.80
2019-06-10T06:49:32.847Z,17.90
2019-06-10T06:52:04.987Z,17.90
2019-06-10T06:54:39.455Z,18.00
2019-06-10T06:57:13.047Z,18.10
2019-06-10T06:59:45.945Z,18.20
2019-06-10T07:02:19.559Z,18.20
2019-06-10T07:04:53.279Z,18.30
2019-06-10T07:07:27.813Z,18.30
2019-06-10T07:10:03.432Z,18.30
2019-06-10T07:12:36.376Z,18.40
2019-06-10T07:15:08.709Z,18.50
2019-06-10T07:17:45.555Z,18.60
2019-06-10T07:20:17.718Z,18.70
2019-06-10T07:22:53.298Z,18.70
2019-06-10T07:25:24.851Z,18.80
2019-06-10T07:27:58.636Z,18.90
2019-06-10T07:30:36.887Z,19.00
2019-06-10T07:33:06.187Z,19.00
2019-06-10T07:35:40.931Z,19.10
2019-06-10T07:38:14.492Z,19.30
2019-06-10T07:40:48.181Z,19.50
2019-06-10T07:43:23.081Z,19.50
2019-06-10T07:45:55.279Z,19.60
2019-06-10T07:48:29.928Z,19.30
2019-06-10T07:51:03.523Z,19.30
2019-06-10T07:53:38.670Z,19.20
2019-06-10T07:56:13.272Z,19.10
2019-06-10T07:58:47.653Z,19.10
2019-06-10T08:01:23.051Z,19.20
2019-06-10T08:03:54.477Z,19.30
2019-06-10T08:06:28.933Z,19.10
2019-06-10T08:09:02.744Z,19.10
2019-06-10T08:11:37.154Z,19.30
2019-06-10T08:14:12.993Z,19.50
2019-06-10T08:16:46.665Z,19.50
2019-06-10T08:19:31.490Z,19.40
2019-06-10T08:21:53.740Z,19.30
2019-06-10T08:24:27.130Z,19.30
2019-06-10T08:27:02.729Z,19.30
2019-06-10T08:29:34.474Z,19.30
2019-06-10T08:32:08.049Z,19.10
2019-06-10T08:34:44.599Z,19.00
2019-06-10T08:37:15.225Z,18.80
2019-06-10T08:39:48.952Z,18.70
2019-06-10T08:42:23.522Z,18.80
2019-06-10T08:44:59.921Z,18.80
2019-06-10T08:47:32.636Z,18.80
2019-06-10T08:50:05.331Z,18.90
2019-06-10T08:52:56.882Z,18.80
2019-06-10T08:55:12.777Z,18.90
2019-06-10T08:57:48.771Z,18.80
2019-06-10T09:00:23.307Z,18.70
2019-06-10T09:02:54.015Z,18.70
2019-06-10T09:05:27.447Z,18.70
2019-06-10T09:08:02.864Z,18.60
2019-06-10T09:10:34.725Z,18.70
2019-06-10T09:13:08.351Z,18.80
2019-06-10T09:15:45.052Z,18.80
2019-06-10T09:18:19.652Z,18.90
2019-06-10T09:20:52.896Z,19.10
2019-06-10T09:23:25.521Z,19.50
2019-06-10T09:25:57.995Z,20.70
2019-06-10T09:28:32.848Z,20.70
2019-06-10T09:31:05.540Z,22.00
2019-06-10T09:33:39.657Z,22.00
2019-06-10T09:36:12.978Z,22.50
2019-06-10T09:38:48.775Z,23.00
2019-06-10T09:41:26.586Z,22.90
2019-06-10T09:43:56.936Z,23.70
2019-06-10T09:46:27.967Z,24.20
2019-06-10T09:49:02.157Z,24.10
2019-06-10T09:51:35.214Z,23.50
2019-06-10T09:54:08.966Z,23.40
2019-06-10T09:56:44.073Z,24.40
2019-06-10T09:59:16.304Z,25.10
2019-06-10T10:01:55.335Z,25.10
2019-06-10T10:04:23.745Z,24.60
2019-06-10T10:06:58.113Z,23.90
2019-06-10T10:09:34.443Z,23.90
2019-06-10T10:12:05.655Z,23.80
2019-06-10T10:14:39.314Z,24.00
2019-06-10T10:17:13.189Z,23.60
2019-06-10T10:19:48.645Z,23.50
2019-06-10T10:22:22.762Z,23.70
2019-06-10T10:24:56.456Z,24.50
2019-06-10T10:27:28.089Z,25.00
2019-06-10T10:30:03.385Z,24.90
2019-06-10T10:32:35.025Z,25.20
2019-06-10T10:35:09.477Z,25.80
2019-06-10T10:37:44.552Z,25.90
2019-06-10T10:40:17.812Z,25.90
2019-06-10T10:43:00.668Z,26.70
2019-06-10T10:45:26.248Z,26.60
2019-06-10T10:48:02.381Z,26.60
2019-06-10T10:50:34.140Z,26.70
2019-06-10T10:53:07.869Z,26.30
2019-06-10T10:55:42.544Z,26.30
2019-06-10T10:58:15.217Z,26.20
2019-06-10T11:00:51.620Z,25.90
2019-06-10T11:03:23.018Z,25.90
2019-06-10T11:06:00.757Z,25.90
2019-06-10T11:08:33.167Z,26.00
2019-06-10T11:11:05.664Z,25.80
2019-06-10T11:13:37.837Z,25.40
2019-06-10T11:16:11.422Z,24.80
2019-06-10T11:18:45.273Z,24.00
2019-06-10T11:21:18.716Z,23.40
2019-06-10T11:23:56.961Z,23.40
2019-06-10T11:26:27.011Z,23.40
2019-06-10T11:29:02.781Z,23.50
2019-06-10T11:31:33.658Z,23.60
2019-06-10T11:34:07.221Z,23.50
2019-06-10T11:36:42.385Z,23.50
2019-06-10T11:39:14.424Z,23.50
2019-06-10T11:41:48.243Z,23.50
2019-06-10T11:44:22.480Z,23.10
2019-06-10T11:46:58.159Z,23.00
2019-06-10T11:49:28.933Z,23.00
2019-06-10T11:52:03.256Z,22.80
2019-06-10T11:54:50.922Z,22.80
2019-06-10T11:57:12.379Z,22.90
2019-06-10T11:59:44.237Z,22.80
2019-06-10T12:02:17.611Z,23.00
2019-06-10T12:04:53.638Z,22.90
2019-06-10T12:07:25.055Z,22.60
2019-06-10T12:10:01.120Z,22.20
2019-06-10T12:12:33.840Z,22.20
2019-06-10T12:15:06.783Z,22.20
2019-06-10T12:17:50.047Z,22.10
2019-06-10T12:20:15.101Z,22.20
2019-06-10T12:22:49.518Z,22.10
2019-06-10T12:25:34.010Z,22.10
2019-06-10T12:28:01.238Z,22.20
2019-06-10T12:30:29.787Z,22.30
2019-06-10T12:33:05.643Z,22.60
2019-06-10T12:35:38.023Z,22.60
2019-06-10T12:38:13.825Z,22.80
2019-06-10T12:40:45.335Z,23.10
2019-06-10T12:43:18.855Z,23.20
2019-06-10T12:45:54.274Z,23.20
2019-06-10T12:48:25.942Z,23.10
2019-06-10T12:51:01.695Z,23.00
2019-06-10T12:53:33.696Z,22.90
2019-06-10T12:56:11.022Z,22.70
2019-06-10T12:58:43.278Z,22.60
2019-06-10T13:01:15.245Z,22.50
2019-06-10T13:03:48.855Z,22.50
2019-06-10T13:06:23.719Z,22.60
2019-06-10T13:08:58.077Z,22.60
2019-06-10T13:11:32.862Z,22.60
2019-06-10T13:14:06.673Z,22.50
2019-06-10T13:16:39.187Z,22.50
2019-06-10T13:19:13.441Z,22.40
2019-06-10T13:21:48.091Z,22.30
2019-06-10T13:24:22.472Z,22.30
2019-06-10T13:26:56.528Z,22.10
2019-06-10T13:29:29.709Z,22.10
2019-06-10T13:32:06.139Z,22.00
2019-06-10T13:34:36.894Z,21.90
2019-06-10T13:37:14.939Z,21.80
2019-06-10T13:39:45.128Z,21.60
2019-06-10T13:42:18.559Z,21.50
2019-06-10T13:44:52.460Z,21.50
2019-06-10T13:47:26.689Z,21.10
2019-06-10T13:50:01.612Z,21.00
2019-06-10T13:52:33.925Z,20.90
2019-06-10T13:55:10.442Z,20.80
2019-06-10T13:57:42.616Z,20.70
2019-06-10T14:00:14.865Z,20.70
2019-06-10T14:02:49.285Z,20.20
2019-06-10T14:05:23.656Z,20.10
2019-06-10T14:07:58.244Z,20.00
2019-06-10T14:10:32.542Z,19.90
2019-06-10T14:13:06.860Z,19.90
2019-06-10T14:15:39.156Z,19.80
2019-06-10T14:18:15.170Z,19.80
2019-06-10T14:20:47.563Z,19.70
2019-06-10T14:23:22.033Z,19.70
2019-06-10T14:25:54.933Z,19.60
2019-06-10T14:28:39.719Z,19.40
2019-06-10T14:31:05.148Z,19.40
2019-06-10T14:33:36.075Z,19.50
2019-06-10T14:36:10.972Z,19.40
2019-06-10T14:38:43.459Z,19.40
2019-06-10T14:41:18.015Z,19.40
2019-06-10T14:43:53.112Z,19.40
2019-06-10T14:46:25.969Z,19.30
2019-06-10T14:48:59.559Z,19.30
2019-06-10T14:51:33.288Z,19.20
2019-06-10T14:54:07.311Z,19.20
2019-06-10T14:56:50.739Z,19.10
2019-06-10T14:59:16.426Z,19.10
2019-06-10T15:01:48.934Z,19.20
2019-06-10T15:04:22.731Z,19.20
2019-06-10T15:06:56.336Z,19.20
2019-06-10T15:09:30.105Z,19.30
2019-06-10T15:12:03.876Z,19.20
2019-06-10T15:14:38.327Z,19.10
2019-06-10T15:17:12.448Z,19.10
2019-06-10T15:19:46.609Z,19.20
2019-06-10T15:22:20.249Z,19.20
2019-06-10T15:24:53.907Z,19.10
2019-06-10T15:27:31.666Z,19.20
2019-06-10T15:30:11.303Z,19.30
2019-06-10T15:32:35.124Z,19.30
2019-06-10T15:35:10.726Z,19.20
2019-06-10T15:37:43.791Z,19.10
2019-06-10T15:40:18.287Z,19.10
2019-06-10T15:42:53.333Z,19.10
2019-06-10T15:45:25.020Z,19.00
2019-06-10T15:47:59.450Z,19.00
2019-06-10T15:50:33.181Z,19.00
2019-06-10T15:53:06.778Z,18.90
2019-06-10T15:56:08.892Z,19.10
2019-06-10T15:58:16.014Z,19.10
2019-06-10T16:00:49.285Z,19.10
2019-06-10T16:03:25.392Z,19.00
2019-06-10T16:05:56.657Z,19.00
2019-06-10T16:08:32.514Z,18.90
2019-06-10T16:11:04.010Z,18.90
2019-06-10T16:13:38.409Z,18.90
2019-06-10T16:16:12.859Z,18.90
2019-06-10T16:18:46.585Z,18.90
2019-06-10T16:21:21.650Z,18.90
2019-06-10T16:23:53.989Z,18.90
2019-06-10T16:26:27.623Z,18.90
2019-06-10T16:29:02.738Z,19.00
2019-06-10T16:31:36.616Z,19.00
2019-06-10T16:34:12.593Z,18.90
2019-06-10T16:36:44.011Z,19.10
2019-06-10T16:39:17.568Z,19.20
2019-06-10T16:41:52.292Z,19.20
2019-06-10T16:44:27.750Z,19.10
2019-06-10T16:46:58.608Z,19.10
2019-06-10T16:49:32.874Z,19.10
2019-06-10T16:52:06.622Z,19.00
2019-06-10T16:54:42.048Z,19.00
2019-06-10T16:57:14.197Z,19.00
2019-06-10T16:59:48.403Z,19.00
2019-06-10T17:02:23.927Z,18.90
2019-06-10T17:04:58.370Z,18.80
2019-06-10T17:07:32.898Z,18.50
2019-06-10T17:10:05.071Z,18.50
2019-06-10T17:12:38.844Z,18.60
2019-06-10T17:15:13.012Z,18.50
2019-06-10T17:17:46.139Z,18.40
2019-06-10T17:20:21.177Z,18.30
2019-06-10T17:22:53.604Z,18.30
2019-06-10T17:25:28.135Z,18.30
2019-06-10T17:28:15.129Z,18.40
2019-06-10T17:30:35.875Z,18.40
2019-06-10T17:33:09.535Z,18.30
2019-06-10T17:35:43.306Z,18.30
2019-06-10T17:38:16.791Z,18.20
2019-06-10T17:40:52.129Z,18.10
2019-06-10T17:43:25.204Z,18.10
2019-06-10T17:45:58.440Z,18.10
2019-06-10T17:48:33.701Z,18.10
2019-06-10T17:51:05.986Z,18.00
2019-06-10T17:53:39.747Z,17.90
2019-06-10T17:56:13.468Z,17.90
2019-06-10T17:58:56.802Z,17.80
2019-06-10T18:01:22.503Z,17.80
2019-06-10T18:03:54.909Z,17.80
2019-06-10T18:06:29.687Z,17.70
2019-06-10T18:09:04.024Z,17.70
2019-06-10T18:11:36.421Z,17.70
2019-06-10T18:14:12.200Z,17.80
2019-06-10T18:16:43.784Z,17.90
2019-06-10T18:19:17.463Z,18.00
2019-06-10T18:21:52.244Z,17.90
2019-06-10T18:24:27.574Z,17.80
2019-06-10T18:27:02.142Z,17.80
2019-06-10T18:29:35.482Z,17.90
2019-06-10T18:32:07.046Z,18.00
2019-06-10T18:34:42.643Z,18.00
2019-06-10T18:37:14.423Z,18.10
2019-06-10T18:39:48.151Z,18.10
2019-06-10T18:42:23.523Z,18.10
2019-06-10T18:44:55.559Z,18.10
2019-06-10T18:47:30.168Z,18.10
2019-06-10T18:50:03.234Z,18.20
2019-06-10T18:52:37.614Z,18.10
2019-06-10T18:55:12.264Z,18.10
2019-06-10T18:57:46.273Z,18.20
2019-06-10T19:00:19.948Z,18.10
2019-06-10T19:03:09.140Z,18.10
2019-06-10T19:05:28.524Z,18.00
2019-06-10T19:08:02.654Z,18.00
2019-06-10T19:10:38.334Z,18.00
2019-06-10T19:13:12.918Z,17.90
2019-06-10T19:15:44.400Z,17.90
2019-06-10T19:18:18.925Z,17.80
2019-06-10T19:20:53.443Z,17.80
2019-06-10T19:23:26.330Z,17.80
2019-06-10T19:26:00.132Z,17.80
2019-06-10T19:28:37.114Z,17.80
2019-06-10T19:31:08.409Z,17.80
2019-06-10T19:33:45.159Z,17.80
2019-06-10T19:36:16.558Z,17.80
2019-06-10T19:38:50.116Z,17.80
2019-06-10T19:41:23.664Z,17.80
2019-06-10T19:43:57.262Z,17.80
2019-06-10T19:46:33.767Z,17.90
2019-06-10T19:49:07.223Z,17.90
2019-06-10T19:51:38.917Z,17.90
2019-06-10T19:54:12.754Z,17.90
2019-06-10T19:56:46.032Z,17.80
2019-06-10T19:59:19.942Z,17.80
2019-06-10T20:01:54.118Z,17.80
2019-06-10T20:04:28.141Z,17.80
2019-06-10T20:07:02.467Z,17.80
2019-06-10T20:09:36.000Z,17.80
2019-06-10T20:12:09.410Z,17.80
2019-06-10T20:14:43.663Z,17.80
2019-06-10T20:17:17.413Z,17.80
2019-06-10T20:19:51.191Z,17.80
2019-06-10T20:22:25.012Z,17.80
2019-06-10T20:24:58.686Z,17.80
2019-06-10T20:27:33.134Z,17.70
2019-06-10T20:30:23.494Z,17.70
2019-06-10T20:32:48.796Z,17.70
2019-06-10T20:35:16.585Z,17.70
2019-06-10T20:37:50.314Z,17.60
2019-06-10T20:40:24.090Z,17.60
2019-06-10T20:43:00.176Z,17.50
2019-06-10T20:45:33.190Z,17.40
2019-06-10T20:48:05.378Z,17.30
2019-06-10T20:50:39.115Z,17.30
2019-06-10T20:53:18.316Z,17.20
2019-06-10T20:55:51.329Z,17.20
2019-06-10T20:58:19.868Z,17.10
2019-06-10T21:00:56.943Z,17.20
2019-06-10T21:03:27.038Z,17.20
2019-06-10T21:06:02.941Z,17.30
2019-06-10T21:08:34.185Z,17.30
2019-06-10T21:11:07.885Z,17.30
2019-06-10T21:13:46.950Z,17.30
2019-06-10T21:16:15.323Z,17.40
2019-06-10T21:18:50.368Z,17.30
2019-06-10T21:21:22.851Z,17.30
2019-06-10T21:23:56.497Z,17.20
2019-06-10T21:26:32.530Z,17.20
2019-06-10T21:29:05.240Z,17.20
2019-06-10T21:31:41.750Z,17.10
2019-06-10T21:34:14.242Z,17.00
2019-06-10T21:36:49.395Z,17.00
2019-06-10T21:39:21.965Z,17.00
2019-06-10T21:41:56.160Z,17.00
2019-06-10T21:44:31.936Z,17.00
2019-06-10T21:47:04.300Z,17.00
2019-06-10T21:49:38.687Z,17.10
2019-06-10T21:52:12.961Z,17.10
2019-06-10T21:54:46.824Z,17.20
2019-06-10T21:57:22.095Z,17.20
2019-06-10T21:59:55.456Z,17.20
2019-06-10T22:02:29.284Z,17.10
2019-06-10T22:05:03.465Z,17.20
2019-06-10T22:07:37.075Z,17.10
2019-06-10T22:10:12.633Z,17.10
2019-06-10T22:12:44.208Z,17.10
2019-06-10T22:15:17.805Z,17.10
2019-06-10T22:17:53.334Z,17.00
2019-06-10T22:20:25.866Z,17.10
2019-06-10T22:23:02.367Z,17.00
2019-06-10T22:25:34.628Z,16.90
2019-06-10T22:28:08.346Z,16.90
2019-06-10T22:30:43.332Z,16.90
2019-06-10T22:33:15.492Z,16.90
2019-06-10T22:35:49.534Z,16.80
2019-06-10T22:38:22.860Z,16.80
2019-06-10T22:40:57.187Z,16.80
2019-06-10T22:43:32.496Z,16.80
2019-06-10T22:46:06.026Z,16.80
2019-06-10T22:48:39.522Z,16.80
2019-06-10T22:51:13.119Z,16.80
2019-06-10T22:53:46.638Z,16.90
2019-06-10T22:56:20.250Z,16.80
2019-06-10T22:58:55.646Z,16.70
2019-06-10T23:01:34.462Z,16.70
2019-06-10T23:04:03.867Z,16.70
2019-06-10T23:06:34.860Z,16.80
2019-06-10T23:09:08.424Z,16.80
2019-06-10T23:11:42.405Z,16.80
2019-06-10T23:14:15.578Z,16.90
2019-06-10T23:16:49.123Z,16.80
2019-06-10T23:19:23.400Z,16.70
2019-06-10T23:21:57.193Z,16.80
2019-06-10T23:24:32.185Z,16.90
2019-06-10T23:27:05.593Z,16.90
2019-06-10T23:29:39.195Z,16.90
2019-06-10T23:32:13.074Z,16.80
2019-06-10T23:34:46.391Z,16.70
2019-06-10T23:37:22.816Z,16.70
2019-06-10T23:39:56.784Z,16.70
2019-06-10T23:42:29.123Z,16.80
2019-06-10T23:45:04.879Z,16.80
2019-06-10T23:47:37.306Z,16.80
2019-06-10T23:50:12.915Z,16.70
2019-06-10T23:52:45.479Z,16.70
2019-06-10T23:55:19.028Z,16.70
2019-06-10T23:57:53.578Z,16.60
